createdAt,value
2019-01-24T00:01:50.075Z,21.62
2019-01-24T00:04:16.883Z,24.60
2019-01-24T00:06:43.090Z,24.77
2019-01-24T00:09:09.230Z,23.38
2019-01-24T00:11:37.862Z,22.22
2019-01-24T00:14:04.098Z,23.20
2019-01-24T00:16:32.695Z,20.08
2019-01-24T00:18:58.553Z,24.00
2019-01-24T00:21:24.687Z,23.60
2019-01-24T00:23:50.480Z,23.40
2019-01-24T00:26:16.337Z,21.97
2019-01-24T00:28:42.211Z,22.80
2019-01-24T00:31:08.018Z,22.30
2019-01-24T00:33:39.603Z,23.07
2019-01-24T00:36:05.697Z,21.07
2019-01-24T00:38:31.534Z,22.77
2019-01-24T00:40:57.385Z,25.10
2019-01-24T00:43:29.004Z,27.40
2019-01-24T00:45:54.857Z,28.23
2019-01-24T00:48:23.701Z,25.60
2019-01-24T00:50:49.982Z,24.90
2019-01-24T00:53:15.816Z,25.12
2019-01-24T00:55:41.670Z,23.30
2019-01-24T00:58:07.496Z,23.60
2019-01-24T01:00:33.406Z,22.60
2019-01-24T01:02:59.247Z,25.73
2019-01-24T01:05:28.373Z,25.77
2019-01-24T01:07:54.217Z,23.65
2019-01-24T01:10:23.107Z,23.27
2019-01-24T01:12:49.303Z,24.63
2019-01-24T01:15:18.229Z,24.80
2019-01-24T01:17:45.032Z,24.80
2019-01-24T01:20:19.150Z,22.77
2019-01-24T01:22:45.395Z,21.48
2019-01-24T01:25:11.719Z,24.52
2019-01-24T01:27:37.641Z,26.17
2019-01-24T01:30:07.273Z,25.00
2019-01-24T01:32:33.220Z,23.67
2019-01-24T01:34:59.065Z,25.60
2019-01-24T01:37:25.164Z,24.13
2019-01-24T01:39:51.264Z,26.37
2019-01-24T01:42:17.206Z,25.35
2019-01-24T01:44:43.021Z,24.10
2019-01-24T01:47:08.832Z,25.77
2019-01-24T01:49:34.938Z,26.00
2019-01-24T01:52:04.063Z,24.18
2019-01-24T01:54:29.909Z,25.92
2019-01-24T01:56:56.975Z,25.87
2019-01-24T01:59:22.813Z,25.35
2019-01-24T02:01:51.996Z,26.50
2019-01-24T02:04:17.834Z,26.37
2019-01-24T02:06:48.841Z,26.83
2019-01-24T02:09:14.675Z,27.22
2019-01-24T02:11:40.502Z,23.87
2019-01-24T02:14:06.353Z,24.50
2019-01-24T02:16:32.211Z,23.27
2019-01-24T02:18:58.062Z,24.20
2019-01-24T02:21:24.224Z,23.27
2019-01-24T02:23:53.339Z,23.80
2019-01-24T02:26:19.442Z,26.40
2019-01-24T02:28:47.745Z,24.25
2019-01-24T02:31:13.883Z,26.40
2019-01-24T02:33:44.671Z,24.65
2019-01-24T02:36:10.741Z,25.68
2019-01-24T02:38:39.592Z,27.40
2019-01-24T02:41:05.406Z,26.85
2019-01-24T02:43:34.103Z,29.40
2019-01-24T02:45:59.930Z,27.13
2019-01-24T02:48:25.861Z,29.17
2019-01-24T02:50:51.685Z,26.53
2019-01-24T02:53:17.555Z,24.83
2019-01-24T02:55:43.357Z,25.13
2019-01-24T02:58:09.198Z,26.50
2019-01-24T03:00:39.775Z,27.23
2019-01-24T03:03:05.576Z,25.65
2019-01-24T03:05:34.446Z,26.90
2019-01-24T03:08:00.283Z,25.25
2019-01-24T03:10:29.137Z,25.33
2019-01-24T03:12:54.961Z,26.02
2019-01-24T03:15:23.830Z,28.30
2019-01-24T03:17:50.041Z,25.88
2019-01-24T03:20:17.387Z,28.42
2019-01-24T03:22:43.719Z,28.70
2019-01-24T03:25:11.734Z,30.17
2019-01-24T03:27:37.594Z,28.27
2019-01-24T03:30:06.823Z,27.73
2019-01-24T03:32:32.625Z,27.25
2019-01-24T03:35:04.108Z,27.80
2019-01-24T03:37:26.195Z,27.10
2019-01-24T03:39:52.300Z,28.33
2019-01-24T03:42:18.501Z,26.17
2019-01-24T03:44:44.635Z,27.75
2019-01-24T03:47:13.512Z,25.30
2019-01-24T03:49:39.323Z,27.50
2019-01-24T03:52:08.212Z,27.10
2019-01-24T03:54:34.038Z,26.35
2019-01-24T03:57:02.984Z,28.20
2019-01-24T03:59:29.185Z,26.82
2019-01-24T04:01:55.023Z,25.80
2019-01-24T04:04:21.161Z,26.77
2019-01-24T04:06:46.976Z,25.77
2019-01-24T04:09:13.918Z,25.90
2019-01-24T04:11:40.012Z,23.92
2019-01-24T04:14:08.953Z,25.45
2019-01-24T04:16:34.806Z,23.18
2019-01-24T04:19:03.480Z,22.30
2019-01-24T04:21:29.339Z,26.10
2019-01-24T04:23:58.699Z,23.17
2019-01-24T04:26:24.557Z,22.73
2019-01-24T04:28:55.342Z,24.37
2019-01-24T04:31:21.157Z,24.20
2019-01-24T04:33:49.771Z,26.40
2019-01-24T04:36:15.587Z,23.35
2019-01-24T04:38:41.468Z,24.17
2019-01-24T04:41:07.577Z,26.40
2019-01-24T04:43:33.384Z,25.77
2019-01-24T04:45:59.356Z,26.03
2019-01-24T04:48:25.175Z,25.68
2019-01-24T04:50:54.122Z,26.83
2019-01-24T04:53:19.981Z,26.07
2019-01-24T04:55:50.386Z,26.40
2019-01-24T04:58:16.453Z,26.70
2019-01-24T05:00:43.496Z,23.57
2019-01-24T05:03:09.309Z,25.68
2019-01-24T05:05:38.025Z,25.37
2019-01-24T05:08:04.225Z,24.15
2019-01-24T05:10:32.845Z,26.80
2019-01-24T05:12:58.658Z,24.60
2019-01-24T05:15:24.815Z,24.77
2019-01-24T05:17:50.627Z,27.07
2019-01-24T05:20:16.873Z,26.37
2019-01-24T05:22:45.735Z,26.30
2019-01-24T05:25:14.048Z,25.65
2019-01-24T05:27:39.885Z,24.92
2019-01-24T05:30:09.566Z,23.47
2019-01-24T05:32:35.424Z,26.40
2019-01-24T05:35:01.272Z,28.90
2019-01-24T05:37:30.219Z,26.47
2019-01-24T05:39:56.049Z,25.55
2019-01-24T05:42:24.779Z,25.13
2019-01-24T05:44:50.659Z,27.15
2019-01-24T05:47:18.490Z,24.47
2019-01-24T05:49:44.335Z,27.27
2019-01-24T05:52:10.130Z,23.97
2019-01-24T05:54:35.932Z,23.90
2019-01-24T05:57:02.062Z,26.30
2019-01-24T05:59:30.642Z,25.45
2019-01-24T06:01:56.857Z,24.70
2019-01-24T06:04:25.575Z,25.85
2019-01-24T06:06:51.419Z,25.52
2019-01-24T06:09:20.091Z,26.13
2019-01-24T06:11:46.032Z,23.90
2019-01-24T06:14:14.679Z,22.33
2019-01-24T06:16:40.488Z,24.98
2019-01-24T06:19:09.438Z,25.73
2019-01-24T06:21:35.369Z,25.57
2019-01-24T06:24:04.049Z,27.60
2019-01-24T06:26:30.154Z,25.12
2019-01-24T06:28:55.968Z,26.60
2019-01-24T06:31:21.796Z,23.07
2019-01-24T06:33:47.902Z,24.23
2019-01-24T06:36:16.781Z,25.92
2019-01-24T06:38:42.877Z,25.12
2019-01-24T06:41:10.025Z,26.33
2019-01-24T06:43:35.859Z,24.00
2019-01-24T06:46:06.754Z,26.63
2019-01-24T06:48:32.855Z,25.92
2019-01-24T06:51:01.454Z,27.48
2019-01-24T06:53:27.285Z,25.85
2019-01-24T06:55:56.209Z,25.83
2019-01-24T06:58:22.080Z,25.48
2019-01-24T07:00:50.952Z,26.03
2019-01-24T07:03:17.042Z,26.48
2019-01-24T07:05:43.139Z,26.97
2019-01-24T07:08:09.209Z,27.27
2019-01-24T07:10:35.269Z,27.00
2019-01-24T07:13:01.118Z,27.98
2019-01-24T07:15:26.943Z,24.03
2019-01-24T07:17:55.827Z,26.10
2019-01-24T07:20:21.714Z,27.32
2019-01-24T07:22:50.570Z,27.60
2019-01-24T07:25:25.299Z,24.27
2019-01-24T07:27:51.135Z,27.17
2019-01-24T07:30:18.255Z,26.80
2019-01-24T07:32:44.187Z,26.30
2019-01-24T07:35:12.009Z,25.20
2019-01-24T07:37:38.149Z,24.23
2019-01-24T07:40:07.499Z,26.27
2019-01-24T07:42:33.358Z,25.75
2019-01-24T07:44:59.173Z,25.70
2019-01-24T07:47:25.304Z,27.53
2019-01-24T07:49:51.472Z,24.15
2019-01-24T07:52:17.295Z,25.55
2019-01-24T07:54:43.448Z,23.07
2019-01-24T07:57:09.281Z,26.70
2019-01-24T07:59:35.421Z,24.60
2019-01-24T08:02:01.273Z,27.42
2019-01-24T08:04:29.884Z,24.80
2019-01-24T08:06:55.678Z,25.40
2019-01-24T08:09:25.263Z,24.73
2019-01-24T08:11:51.104Z,27.45
2019-01-24T08:14:21.828Z,26.20
2019-01-24T08:16:47.643Z,25.95
2019-01-24T08:19:13.490Z,25.40
2019-01-24T08:21:39.320Z,23.03
2019-01-24T08:24:05.164Z,23.87
2019-01-24T08:26:34.081Z,25.77
2019-01-24T08:29:00.028Z,23.77
2019-01-24T08:31:25.841Z,24.67
2019-01-24T08:33:51.953Z,21.97
2019-01-24T08:36:20.528Z,23.18
2019-01-24T08:38:46.339Z,20.62
2019-01-24T08:41:15.459Z,24.00
2019-01-24T08:43:41.308Z,23.27
2019-01-24T08:46:09.931Z,25.03
2019-01-24T08:48:35.730Z,25.45
2019-01-24T08:51:04.610Z,27.53
2019-01-24T08:53:30.725Z,23.42
2019-01-24T08:55:56.585Z,25.68
2019-01-24T08:58:22.398Z,25.97
2019-01-24T09:00:48.527Z,24.77
2019-01-24T09:03:17.224Z,26.15
2019-01-24T09:05:43.048Z,23.00
2019-01-24T09:08:11.910Z,26.00
2019-01-24T09:10:38.342Z,25.05
2019-01-24T09:13:06.957Z,25.45
2019-01-24T09:15:33.151Z,24.02
2019-01-24T09:18:02.431Z,24.85
2019-01-24T09:20:28.657Z,24.37
2019-01-24T09:22:57.269Z,24.05
2019-01-24T09:25:23.110Z,25.10
2019-01-24T09:27:50.243Z,22.80
2019-01-24T09:30:21.950Z,25.95
2019-01-24T09:32:48.040Z,27.13
2019-01-24T09:35:14.272Z,22.80
2019-01-24T09:37:40.105Z,24.30
2019-01-24T09:40:12.735Z,25.00
2019-01-24T09:42:38.941Z,25.15
2019-01-24T09:45:08.501Z,24.98
2019-01-24T09:47:34.576Z,23.65
2019-01-24T09:50:00.414Z,25.32
2019-01-24T09:52:26.485Z,24.90
2019-01-24T09:54:52.330Z,24.70
2019-01-24T09:57:18.179Z,23.80
2019-01-24T09:59:44.247Z,24.70
2019-01-24T10:02:10.064Z,24.75
2019-01-24T10:04:36.172Z,27.87
2019-01-24T10:07:02.051Z,27.40
2019-01-24T10:09:27.855Z,28.33
2019-01-24T10:11:53.697Z,26.37
2019-01-24T10:14:19.516Z,25.97
2019-01-24T10:16:48.123Z,26.43
2019-01-24T10:19:13.929Z,24.72
2019-01-24T10:21:42.568Z,25.97
2019-01-24T10:24:08.688Z,25.02
2019-01-24T10:26:37.557Z,26.62
2019-01-24T10:29:03.441Z,27.32
2019-01-24T10:31:33.384Z,26.33
2019-01-24T10:33:59.181Z,24.15
2019-01-24T10:36:26.541Z,24.70
2019-01-24T10:38:52.671Z,24.07
2019-01-24T10:41:21.381Z,25.60
2019-01-24T10:43:47.463Z,27.30
2019-01-24T10:46:13.539Z,28.70
2019-01-24T10:48:39.394Z,26.35
2019-01-24T10:51:05.393Z,27.80
2019-01-24T10:53:32.634Z,26.50
2019-01-24T10:55:58.495Z,26.20
2019-01-24T10:58:29.017Z,25.37
2019-01-24T11:00:54.821Z,23.75
2019-01-24T11:03:21.942Z,26.53
2019-01-24T11:05:47.870Z,24.15
2019-01-24T11:08:17.075Z,25.00
2019-01-24T11:10:43.011Z,27.62
2019-01-24T11:13:12.030Z,24.97
2019-01-24T11:15:37.899Z,25.08
2019-01-24T11:18:06.630Z,24.23
2019-01-24T11:20:32.430Z,24.00
2019-01-24T11:22:58.273Z,27.10
2019-01-24T11:25:25.425Z,26.37
2019-01-24T11:27:51.331Z,25.70
2019-01-24T11:30:24.010Z,24.77
2019-01-24T11:32:50.266Z,25.62
2019-01-24T11:35:18.419Z,24.27
2019-01-24T11:37:44.345Z,28.85
2019-01-24T11:40:16.520Z,26.53
2019-01-24T11:42:42.445Z,25.92
2019-01-24T11:45:10.821Z,26.57
2019-01-24T11:47:36.911Z,33.20
2019-01-24T11:50:06.510Z,28.00
2019-01-24T11:52:32.668Z,25.90
2019-01-24T11:54:58.486Z,26.25
2019-01-24T11:57:24.289Z,23.73
2019-01-24T11:59:50.149Z,24.23
2019-01-24T12:02:15.964Z,25.10
2019-01-24T12:04:41.802Z,25.70
2019-01-24T12:07:07.623Z,26.10
2019-01-24T12:09:33.469Z,24.93
2019-01-24T12:11:59.616Z,22.37
2019-01-24T12:14:25.469Z,23.52
2019-01-24T12:16:52.314Z,25.37
2019-01-24T12:19:18.430Z,25.02
2019-01-24T12:21:47.545Z,25.27
2019-01-24T12:24:13.355Z,25.43
2019-01-24T12:26:42.500Z,26.60
2019-01-24T12:29:08.608Z,27.20
2019-01-24T12:31:36.609Z,29.27
2019-01-24T12:34:02.792Z,25.72
2019-01-24T12:36:28.596Z,26.57
2019-01-24T12:38:54.554Z,26.87
2019-01-24T12:41:20.412Z,30.40
2019-01-24T12:43:48.988Z,27.60
2019-01-24T12:46:14.791Z,27.05
2019-01-24T12:51:11.226Z,25.82
2019-01-24T12:53:40.230Z,26.20
2019-01-24T12:56:06.175Z,23.57
2019-01-24T12:58:32.538Z,23.73
2019-01-24T13:00:58.520Z,26.60
2019-01-24T13:03:27.422Z,25.92
2019-01-24T13:05:53.247Z,26.45
2019-01-24T13:08:22.235Z,24.17
2019-01-24T13:10:48.096Z,27.52
2019-01-24T13:13:14.036Z,24.67
2019-01-24T13:15:40.053Z,25.60
2019-01-24T13:18:05.894Z,24.65
2019-01-24T13:20:34.677Z,24.60
2019-01-24T13:23:00.906Z,26.60
2019-01-24T13:25:31.352Z,25.57
2019-01-24T13:27:57.293Z,23.35
2019-01-24T13:30:26.241Z,27.17
2019-01-24T13:32:52.061Z,24.70
2019-01-24T13:35:18.009Z,23.97
2019-01-24T13:37:43.848Z,24.47
2019-01-24T13:40:15.862Z,24.87
2019-01-24T13:42:41.986Z,22.52
2019-01-24T13:45:16.910Z,24.12
2019-01-24T13:47:42.833Z,25.23
2019-01-24T13:50:11.566Z,24.87
2019-01-24T13:52:37.413Z,25.15
2019-01-24T13:55:03.635Z,26.90
2019-01-24T13:57:29.462Z,26.27
2019-01-24T13:59:55.607Z,24.07
2019-01-24T14:02:21.667Z,26.00
2019-01-24T14:04:47.463Z,25.70
2019-01-24T14:07:13.327Z,24.53
2019-01-24T14:09:39.143Z,27.93
2019-01-24T14:12:05.389Z,24.60
2019-01-24T14:14:31.194Z,24.45
2019-01-24T14:17:00.240Z,27.03
2019-01-24T14:19:26.367Z,26.70
2019-01-24T14:21:55.429Z,28.38
2019-01-24T14:24:21.235Z,28.23
2019-01-24T14:26:47.088Z,26.73
2019-01-24T14:29:12.986Z,29.20
2019-01-24T14:31:38.824Z,28.00
2019-01-24T14:34:04.879Z,26.90
2019-01-24T14:36:30.954Z,26.10
2019-01-24T14:38:59.869Z,24.75
2019-01-24T14:41:25.709Z,25.85
2019-01-24T14:43:54.282Z,26.27
2019-01-24T14:46:20.450Z,26.00
2019-01-24T14:48:48.797Z,28.23
2019-01-24T14:51:14.626Z,23.52
2019-01-24T14:53:43.810Z,24.97
2019-01-24T14:56:09.933Z,24.47
2019-01-24T14:58:38.614Z,22.62
2019-01-24T15:01:05.456Z,23.75
2019-01-24T15:03:31.303Z,25.15
2019-01-24T15:05:57.105Z,26.90
2019-01-24T15:08:22.940Z,24.27
2019-01-24T15:10:52.211Z,25.70
2019-01-24T15:13:18.029Z,23.70
2019-01-24T15:15:47.190Z,25.43
2019-01-24T15:18:13.279Z,25.57
2019-01-24T15:20:39.486Z,27.48
2019-01-24T15:23:05.354Z,25.17
2019-01-24T15:25:36.262Z,25.43
2019-01-24T15:28:02.090Z,24.05
2019-01-24T15:30:30.921Z,25.30
2019-01-24T15:32:57.138Z,22.60
2019-01-24T15:35:26.152Z,23.90
2019-01-24T15:37:54.711Z,23.62
2019-01-24T15:40:22.428Z,22.20
2019-01-24T15:42:48.239Z,27.02
2019-01-24T15:45:15.587Z,28.77
2019-01-24T15:47:41.814Z,24.95
2019-01-24T15:50:10.746Z,25.52
2019-01-24T15:52:36.625Z,27.37
2019-01-24T15:55:04.272Z,28.33
2019-01-24T15:57:30.085Z,24.25
2019-01-24T15:59:55.944Z,26.87
2019-01-24T16:02:21.765Z,25.07
2019-01-24T16:04:47.580Z,28.47
2019-01-24T16:07:14.918Z,28.93
2019-01-24T16:09:40.733Z,26.48
2019-01-24T16:12:09.639Z,34.40
2019-01-24T16:14:35.766Z,29.67
2019-01-24T16:17:01.585Z,26.75
2019-01-24T16:19:27.425Z,26.17
2019-01-24T16:21:53.529Z,25.67
2019-01-24T16:24:22.465Z,24.65
2019-01-24T16:26:48.294Z,26.23
2019-01-24T16:29:17.370Z,24.67
2019-01-24T16:31:43.199Z,24.55
2019-01-24T16:34:12.200Z,25.27
2019-01-24T16:36:38.347Z,26.07
2019-01-24T16:39:06.331Z,24.57
2019-01-24T16:41:32.142Z,23.52
2019-01-24T16:43:59.427Z,24.57
2019-01-24T16:46:25.265Z,23.10
2019-01-24T16:48:55.678Z,23.80
2019-01-24T16:51:21.728Z,23.50
2019-01-24T16:53:47.915Z,21.35
2019-01-24T16:56:13.801Z,21.50
2019-01-24T16:58:39.710Z,25.23
2019-01-24T17:01:05.726Z,26.40
2019-01-24T17:03:31.550Z,46.00
2019-01-24T17:06:00.468Z,31.90
2019-01-24T17:08:26.278Z,26.12
2019-01-24T17:10:55.197Z,24.70
2019-01-24T17:13:21.416Z,29.92
2019-01-24T17:15:50.289Z,26.15
2019-01-24T17:18:16.101Z,34.83
2019-01-24T17:20:44.930Z,24.97
2019-01-24T17:23:11.034Z,25.95
2019-01-24T17:25:39.647Z,27.30
2019-01-24T17:28:05.711Z,24.55
2019-01-24T17:30:31.921Z,27.20
2019-01-24T17:32:58.058Z,26.82
2019-01-24T17:35:24.102Z,34.18
2019-01-24T17:37:53.141Z,31.23
2019-01-24T17:40:34.767Z,32.48
2019-01-24T17:43:00.868Z,28.02
2019-01-24T17:45:27.353Z,28.77
2019-01-24T17:47:53.250Z,28.25
2019-01-24T17:50:19.506Z,23.57
2019-01-24T17:52:45.331Z,24.87
2019-01-24T17:55:37.334Z,25.60
2019-01-24T17:58:04.843Z,23.98
2019-01-24T18:00:32.860Z,22.52
2019-01-24T18:02:58.735Z,26.52
2019-01-24T18:05:24.629Z,21.93
2019-01-24T18:07:50.771Z,22.83
2019-01-24T18:10:24.864Z,24.15
2019-01-24T18:12:50.990Z,25.32
2019-01-24T18:15:22.255Z,26.75
2019-01-24T18:17:48.108Z,26.15
2019-01-24T18:20:18.284Z,20.90
2019-01-24T18:22:44.283Z,21.85
2019-01-24T18:25:10.161Z,19.77
2019-01-24T18:27:36.223Z,24.43
2019-01-24T18:30:05.159Z,22.50
2019-01-24T18:32:30.975Z,18.98
2019-01-24T18:34:57.153Z,21.43
2019-01-24T18:37:23.002Z,22.62
2019-01-24T18:39:48.790Z,22.53
2019-01-24T18:42:14.742Z,26.37
2019-01-24T18:44:40.543Z,20.97
2019-01-24T18:47:06.771Z,23.80
2019-01-24T18:49:32.868Z,17.95
2019-01-24T18:51:58.897Z,20.62
2019-01-24T18:54:24.726Z,22.73
2019-01-24T18:56:50.654Z,20.93
2019-01-24T18:59:16.562Z,23.23
2019-01-24T19:01:42.675Z,21.20
2019-01-24T19:04:08.502Z,19.75
2019-01-24T19:06:34.360Z,20.60
2019-01-24T19:09:00.192Z,28.03
2019-01-24T19:11:26.007Z,19.83
2019-01-24T19:13:52.086Z,20.53
2019-01-24T19:16:17.907Z,18.82
2019-01-24T19:18:43.971Z,21.13
2019-01-24T19:21:09.924Z,20.90
2019-01-24T19:23:35.732Z,18.33
2019-01-24T19:26:01.556Z,17.60
2019-01-24T19:28:27.415Z,20.50
2019-01-24T19:30:53.538Z,17.17
2019-01-24T19:33:19.466Z,17.15
2019-01-24T19:35:45.305Z,17.23
2019-01-24T19:38:11.413Z,17.37
2019-01-24T19:40:37.252Z,20.00
2019-01-24T19:43:03.192Z,18.20
2019-01-24T19:45:29.106Z,18.77
2019-01-24T19:47:54.921Z,19.53
2019-01-24T19:50:25.629Z,22.47
2019-01-24T19:52:51.572Z,18.73
2019-01-24T19:55:17.502Z,18.20
2019-01-24T19:57:43.753Z,20.90
2019-01-24T20:00:21.728Z,19.10
2019-01-24T20:02:48.030Z,16.20
2019-01-24T20:05:15.584Z,17.85
2019-01-24T20:07:41.498Z,16.95
2019-01-24T20:10:19.022Z,16.87
2019-01-24T20:12:45.182Z,19.50
2019-01-24T20:15:14.708Z,19.00
2019-01-24T20:17:40.702Z,18.90
2019-01-24T20:20:09.889Z,19.12
2019-01-24T20:22:35.931Z,17.67
2019-01-24T20:25:02.146Z,20.35
2019-01-24T20:27:27.976Z,19.10
2019-01-24T20:29:53.789Z,20.97
2019-01-24T20:32:19.637Z,18.23
2019-01-24T20:34:45.438Z,18.97
2019-01-24T20:37:11.294Z,20.67
2019-01-24T20:39:37.398Z,20.60
2019-01-24T20:42:03.373Z,21.60
2019-01-24T20:44:29.497Z,19.95
2019-01-24T20:46:55.327Z,17.02
2019-01-24T20:49:21.148Z,19.40
2019-01-24T20:51:47.257Z,19.03
2019-01-24T20:54:13.062Z,21.40
2019-01-24T20:56:39.052Z,20.33
2019-01-24T20:59:05.094Z,19.90
2019-01-24T21:01:30.912Z,20.77
2019-01-24T21:03:56.775Z,19.60
2019-01-24T21:06:22.584Z,20.50
2019-01-24T21:08:48.691Z,21.00
2019-01-24T21:11:14.533Z,20.40
2019-01-24T21:13:40.359Z,20.17
2019-01-24T21:16:06.592Z,18.37
2019-01-24T21:18:32.397Z,20.68
2019-01-24T21:20:58.247Z,21.03
2019-01-24T21:23:24.073Z,19.67
2019-01-24T21:25:49.903Z,21.20
2019-01-24T21:28:15.851Z,20.50
2019-01-24T21:30:41.643Z,19.27
2019-01-24T21:33:07.602Z,20.37
2019-01-24T21:35:33.525Z,22.48
2019-01-24T21:38:01.895Z,21.63
2019-01-24T21:40:27.932Z,20.65
2019-01-24T21:42:58.948Z,20.35
2019-01-24T21:45:27.293Z,17.00
2019-01-24T21:47:53.248Z,18.48
2019-01-24T21:50:21.473Z,17.30
2019-01-24T21:52:47.347Z,19.73
2019-01-24T21:55:14.016Z,19.10
2019-01-24T21:57:40.162Z,18.98
2019-01-24T22:00:18.574Z,20.92
2019-01-24T22:02:44.676Z,20.95
2019-01-24T22:05:12.321Z,19.52
2019-01-24T22:07:38.281Z,19.57
2019-01-24T22:10:07.915Z,20.70
2019-01-24T22:12:34.038Z,17.87
2019-01-24T22:15:00.242Z,19.95
2019-01-24T22:17:26.347Z,21.05
2019-01-24T22:19:52.441Z,20.77
2019-01-24T22:22:18.269Z,16.65
2019-01-24T22:24:44.077Z,17.00
2019-01-24T22:27:10.024Z,16.83
2019-01-24T22:29:35.875Z,16.37
2019-01-24T22:32:01.721Z,17.80
2019-01-24T22:34:27.647Z,17.77
2019-01-24T22:36:53.455Z,17.03
2019-01-24T22:39:19.292Z,18.70
2019-01-24T22:41:45.188Z,16.40
2019-01-24T22:44:11.460Z,17.13
2019-01-24T22:46:37.334Z,16.25
2019-01-24T22:49:03.362Z,16.33
2019-01-24T22:51:32.369Z,15.43
2019-01-24T22:53:58.205Z,15.38
2019-01-24T22:56:26.782Z,17.07
2019-01-24T22:58:53.020Z,16.75
2019-01-24T23:01:22.938Z,16.55
2019-01-24T23:03:49.002Z,16.10
2019-01-24T23:06:15.146Z,16.27
2019-01-24T23:08:41.452Z,16.87
2019-01-24T23:11:07.615Z,17.02
2019-01-24T23:13:33.462Z,17.10
2019-01-24T23:15:59.269Z,16.77
2019-01-24T23:18:28.378Z,16.77
2019-01-24T23:20:54.217Z,18.85
2019-01-24T23:23:24.558Z,19.47
2019-01-24T23:25:50.686Z,17.50
2019-01-24T23:28:18.172Z,16.85
2019-01-24T23:30:44.020Z,17.45
2019-01-24T23:33:12.704Z,17.57
2019-01-24T23:35:38.526Z,18.60
2019-01-24T23:38:04.596Z,18.53
2019-01-24T23:40:30.654Z,17.20
2019-01-24T23:42:56.668Z,18.62
2019-01-24T23:45:25.796Z,16.57
2019-01-24T23:47:51.907Z,18.55
2019-01-24T23:50:21.045Z,17.85
2019-01-24T23:52:47.142Z,18.05
2019-01-24T23:55:16.017Z,18.65
2019-01-24T23:57:41.818Z,18.85
